createdAt,value
2023-05-20T00:03:14.111Z,100866.84
2023-05-20T00:08:16.961Z,100850.69
2023-05-20T00:13:21.154Z,100847.50
2023-05-20T00:18:24.066Z,100843.78
2023-05-20T00:23:26.840Z,100846.41
2023-05-20T00:28:31.048Z,100835.34
2023-05-20T00:33:35.002Z,100817.44
2023-05-20T00:38:37.776Z,100843.03
2023-05-20T00:43:42.427Z,100840.13
2023-05-20T00:48:45.938Z,100849.38
2023-05-20T00:53:48.974Z,100844.31
2023-05-20T00:58:53.449Z,100843.84
2023-05-20T01:03:56.280Z,100833.25
2023-05-20T01:08:59.293Z,100851.66
2023-05-20T01:14:09.385Z,100847.59
2023-05-20T01:19:28.164Z,100840.81
2023-05-20T01:24:33.711Z,100836.53
2023-05-20T01:29:36.688Z,100825.19
2023-05-20T01:34:41.334Z,100821.28
2023-05-20T01:39:46.768Z,100816.78
2023-05-20T01:44:49.753Z,100819.91
2023-05-20T01:49:54.055Z,100823.09
2023-05-20T01:54:58.228Z,100835.94
2023-05-20T02:00:01.097Z,100834.59
2023-05-20T02:05:04.094Z,100824.09
2023-05-20T02:10:09.454Z,100831.50
2023-05-20T02:15:12.768Z,100829.91
2023-05-20T02:20:17.246Z,100828.66
2023-05-20T02:25:21.365Z,100820.78
2023-05-20T02:30:24.191Z,100828.91
2023-05-20T02:35:27.172Z,100822.22
2023-05-20T02:40:31.524Z,100822.72
2023-05-20T02:45:34.561Z,100819.59
2023-05-20T02:50:40.179Z,100804.06
2023-05-20T02:55:47.318Z,100813.06
2023-05-20T03:00:50.224Z,100812.31
2023-05-20T03:05:53.028Z,100823.50
2023-05-20T03:10:57.143Z,100820.06
2023-05-20T03:16:01.533Z,100815.13
2023-05-20T03:21:04.425Z,100826.19
2023-05-20T03:26:08.656Z,100825.81
2023-05-20T03:31:11.680Z,100834.94
2023-05-20T03:36:14.583Z,100828.13
2023-05-20T03:41:18.797Z,100825.03
2023-05-20T03:46:21.881Z,100826.25
2023-05-20T03:51:24.856Z,100829.06
2023-05-20T03:56:30.275Z,100830.28
2023-05-20T04:01:33.874Z,100827.06
2023-05-20T04:06:36.972Z,100827.91
2023-05-20T04:11:41.302Z,100828.03
2023-05-20T04:16:45.144Z,100814.19
2023-05-20T04:21:48.080Z,100817.59
2023-05-20T04:26:52.862Z,100824.22
2023-05-20T04:31:58.669Z,100817.38
2023-05-20T04:37:01.803Z,100818.34
2023-05-20T04:42:06.733Z,100827.56
2023-05-20T04:47:09.580Z,100837.66
2023-05-20T04:52:14.359Z,100843.06
2023-05-20T04:57:20.950Z,100841.22
2023-05-20T05:02:23.836Z,100831.13
2023-05-20T05:07:26.685Z,100839.47
2023-05-20T05:12:30.977Z,100838.28
2023-05-20T05:17:34.576Z,100843.47
2023-05-20T05:22:39.654Z,100835.09
2023-05-20T05:27:45.249Z,100829.81
2023-05-20T05:32:48.772Z,100812.56
2023-05-20T05:37:51.908Z,100798.03
2023-05-20T05:42:56.936Z,100798.91
2023-05-20T05:48:00.118Z,100803.59
2023-05-20T05:53:03.142Z,100801.75
2023-05-20T05:58:08.402Z,100804.69
2023-05-20T06:03:11.427Z,100812.91
2023-05-20T06:08:14.511Z,100809.34
2023-05-20T06:13:19.095Z,100801.22
2023-05-20T06:18:22.612Z,100802.34
2023-05-20T06:23:28.656Z,100804.06
2023-05-20T06:28:36.293Z,100806.41
2023-05-20T06:33:39.628Z,100802.25
2023-05-20T06:38:45.884Z,100807.03
2023-05-20T06:43:53.422Z,100810.84
2023-05-20T06:49:15.216Z,100815.69
2023-05-20T06:54:18.152Z,100814.09
2023-05-20T06:59:23.135Z,100800.34
2023-05-20T07:04:26.054Z,100807.00
2023-05-20T07:09:29.086Z,100797.38
2023-05-20T07:14:33.477Z,100782.09
2023-05-20T07:19:37.622Z,100788.41
2023-05-20T07:24:40.538Z,100774.84
2023-05-20T07:29:45.146Z,100778.44
2023-05-20T07:34:47.987Z,100771.41
2023-05-20T07:39:50.870Z,100771.78
2023-05-20T07:44:55.160Z,100777.34
2023-05-20T07:49:58.532Z,100779.69
2023-05-20T07:55:01.634Z,100759.53
2023-05-20T08:00:06.985Z,100759.34
2023-05-20T08:05:19.881Z,100770.19
2023-05-20T08:10:23.513Z,100749.69
2023-05-20T08:15:28.209Z,100747.03
2023-05-20T08:20:32.625Z,100738.56
2023-05-20T08:25:36.029Z,100746.06
2023-05-20T08:30:41.370Z,100742.34
2023-05-20T08:35:44.361Z,100746.03
2023-05-20T08:40:47.386Z,100748.09
2023-05-20T08:45:52.966Z,100734.88
2023-05-20T08:50:59.208Z,100723.38
2023-05-20T08:56:03.598Z,100724.50
2023-05-20T09:01:09.335Z,100719.28
2023-05-20T09:06:17.550Z,100721.63
2023-05-20T09:11:21.697Z,100714.63
2023-05-20T09:16:26.666Z,100716.31
2023-05-20T09:21:31.088Z,100711.78
2023-05-20T09:26:34.004Z,100714.75
2023-05-20T09:31:38.996Z,100704.88
2023-05-20T09:36:44.640Z,100701.16
2023-05-20T09:41:54.954Z,100688.66
2023-05-20T09:47:01.026Z,100680.78
2023-05-20T09:52:05.230Z,100675.56
2023-05-20T09:57:08.626Z,100679.56
2023-05-20T10:02:12.874Z,100671.97
2023-05-20T10:07:44.018Z,100668.06
2023-05-20T10:12:56.234Z,100663.50
2023-05-20T10:18:10.865Z,100655.47
2023-05-20T10:23:22.386Z,100665.03
2023-05-20T10:28:32.974Z,100647.97
2023-05-20T10:33:44.296Z,100645.75
2023-05-20T10:38:53.350Z,100642.75
2023-05-20T10:44:04.083Z,100643.78
2023-05-20T10:49:20.558Z,100651.97
2023-05-20T10:54:25.530Z,100632.44
2023-05-20T10:59:28.522Z,100634.28
2023-05-20T11:04:33.713Z,100627.53
2023-05-20T11:09:37.124Z,100620.56
2023-05-20T11:14:40.114Z,100627.00
2023-05-20T11:19:44.486Z,100613.00
2023-05-20T11:24:47.639Z,100629.00
2023-05-20T11:29:51.716Z,100590.50
2023-05-20T11:34:55.913Z,100597.47
2023-05-20T11:40:08.979Z,100594.44
2023-05-20T11:45:14.665Z,100589.31
2023-05-20T11:50:20.023Z,100561.41
2023-05-20T11:55:22.838Z,100559.22
2023-05-20T12:00:27.606Z,100548.97
2023-05-20T12:05:33.693Z,100545.50
2023-05-20T12:10:37.517Z,100555.50
2023-05-20T12:15:41.317Z,100535.59
2023-05-20T12:20:45.640Z,100534.78
2023-05-20T12:25:49.978Z,100529.22
2023-05-20T12:30:52.972Z,100512.19
2023-05-20T12:35:57.341Z,100507.47
2023-05-20T12:41:00.330Z,100512.09
2023-05-20T12:46:03.704Z,100505.09
2023-05-20T12:51:08.038Z,100492.78
2023-05-20T12:56:11.134Z,100487.41
2023-05-20T13:01:14.024Z,100484.44
2023-05-20T13:06:18.226Z,100480.31
2023-05-20T13:11:21.682Z,100475.34
2023-05-20T13:16:24.815Z,100472.31
2023-05-20T13:21:29.135Z,100457.91
2023-05-20T13:26:31.992Z,100460.16
2023-05-20T13:31:35.021Z,100460.94
2023-05-20T13:36:39.338Z,100452.47
2023-05-20T13:41:42.413Z,100448.41
2023-05-20T13:46:45.542Z,100442.31
2023-05-20T13:51:49.898Z,100436.34
2023-05-20T14:02:39.026Z,100437.25
2023-05-20T14:07:41.863Z,100428.06
2023-05-20T14:12:47.969Z,100414.03
2023-05-20T14:17:52.852Z,100417.50
2023-05-20T14:22:55.894Z,100405.66
2023-05-20T14:34:46.331Z,100387.44
2023-05-20T14:39:49.184Z,100382.19
2023-05-20T14:44:52.085Z,100381.97
2023-05-20T14:49:56.799Z,100377.41
2023-05-20T14:54:59.618Z,100372.78
2023-05-20T15:00:02.493Z,100368.47
2023-05-20T15:05:07.635Z,100356.78
2023-05-20T15:10:10.939Z,100366.50
2023-05-20T15:15:14.037Z,100354.50
2023-05-20T15:20:18.344Z,100350.66
2023-05-20T15:25:21.289Z,100353.97
2023-05-20T15:30:24.255Z,100345.13
2023-05-20T15:35:28.648Z,100346.00
2023-05-20T15:40:31.981Z,100353.91
2023-05-20T15:45:35.148Z,100340.16
2023-05-20T15:50:39.840Z,100342.47
2023-05-20T15:55:43.021Z,100339.03
2023-05-20T16:00:47.066Z,100330.16
2023-05-20T16:05:51.420Z,100328.91
2023-05-20T16:10:54.456Z,100327.44
2023-05-20T16:15:57.813Z,100322.44
2023-05-20T16:21:02.332Z,100321.31
2023-05-20T16:26:05.282Z,100324.31
2023-05-20T16:31:08.213Z,100317.94
2023-05-20T16:36:12.842Z,100313.66
2023-05-20T16:41:16.398Z,100302.59
2023-05-20T16:46:19.642Z,100302.75
2023-05-20T16:51:24.235Z,100299.16
2023-05-20T16:56:27.474Z,100303.28
2023-05-20T17:01:30.474Z,100307.44
2023-05-20T17:06:35.141Z,100292.41
2023-05-20T17:11:38.141Z,100320.31
2023-05-20T17:16:41.234Z,100316.34
2023-05-20T17:21:45.677Z,100310.16
2023-05-20T17:26:48.679Z,100314.66
2023-05-20T17:31:51.524Z,100321.72
2023-05-20T17:36:57.106Z,100316.22
2023-05-20T17:42:00.369Z,100318.06
2023-05-20T17:47:03.255Z,100328.03
2023-05-20T17:52:08.621Z,100317.78
2023-05-20T17:57:11.417Z,100315.00
2023-05-20T18:02:24.794Z,100349.19
2023-05-20T18:07:37.338Z,100338.53
2023-05-20T18:12:40.172Z,100339.66
2023-05-20T18:17:43.070Z,100340.41
2023-05-20T18:22:50.529Z,100340.09
2023-05-20T18:27:53.747Z,100347.66
2023-05-20T18:33:24.778Z,100357.44
2023-05-20T18:38:29.178Z,100355.81
2023-05-20T18:43:32.146Z,100361.69
2023-05-20T18:48:35.287Z,100354.53
2023-05-20T18:53:42.691Z,100351.53
2023-05-20T18:58:48.106Z,100356.41
2023-05-20T19:03:51.330Z,100364.13
2023-05-20T19:08:55.532Z,100376.03
2023-05-20T19:13:58.903Z,100383.34
2023-05-20T19:19:01.746Z,100382.19
2023-05-20T19:24:06.587Z,100380.16
2023-05-20T19:29:09.620Z,100379.47
2023-05-20T19:34:12.438Z,100394.47
2023-05-20T19:39:17.316Z,100392.13
2023-05-20T19:44:20.481Z,100384.22
2023-05-20T19:49:23.316Z,100388.34
2023-05-20T19:54:28.011Z,100379.63
2023-05-20T19:59:30.980Z,100386.78
2023-05-20T20:04:33.986Z,100381.34
2023-05-20T20:09:38.302Z,100375.88
2023-05-20T20:14:41.181Z,100383.34
2023-05-20T20:19:46.124Z,100371.13
2023-05-20T20:24:50.825Z,100378.44
2023-05-20T20:29:53.764Z,100377.03
2023-05-20T20:34:57.875Z,100380.03
2023-05-20T20:40:13.127Z,100377.75
2023-05-20T20:45:16.869Z,100393.06
2023-05-20T20:50:19.718Z,100380.16
2023-05-20T20:55:24.312Z,100379.31
2023-05-20T21:00:27.730Z,100373.41
2023-05-20T21:05:30.709Z,100368.84
2023-05-20T21:10:36.958Z,100360.25
2023-05-20T21:15:40.077Z,100358.25
2023-05-20T21:20:43.281Z,100354.28
2023-05-20T21:25:47.549Z,100353.53
2023-05-20T21:30:50.702Z,100358.53
2023-05-20T21:35:53.604Z,100356.84
2023-05-20T21:40:58.552Z,100355.81
2023-05-20T21:46:01.592Z,100351.38
2023-05-20T21:51:04.791Z,100364.63
2023-05-20T21:56:09.131Z,100369.03
2023-05-20T22:01:12.047Z,100364.38
2023-05-20T22:06:15.768Z,100355.94
2023-05-20T22:11:21.578Z,100357.50
2023-05-20T22:16:24.786Z,100349.63
2023-05-20T22:21:28.756Z,100354.69
2023-05-20T22:26:34.412Z,100346.63
2023-05-20T22:31:37.836Z,100344.66
2023-05-20T22:36:41.602Z,100329.28
2023-05-20T22:41:45.820Z,100327.47
2023-05-20T22:46:48.890Z,100324.72
2023-05-20T22:51:53.021Z,100324.84
2023-05-20T22:56:59.114Z,100316.25
2023-05-20T23:02:02.424Z,100311.25
2023-05-20T23:07:06.437Z,100307.66
2023-05-20T23:12:10.717Z,100302.06
2023-05-20T23:17:13.505Z,100295.75
2023-05-20T23:22:16.331Z,100305.81
2023-05-20T23:27:20.464Z,100292.19
2023-05-20T23:32:23.233Z,100295.06
2023-05-20T23:37:26.139Z,100296.94
2023-05-20T23:42:31.598Z,100299.34
2023-05-20T23:47:36.266Z,100293.53
2023-05-20T23:52:40.195Z,100305.09
2023-05-20T23:57:44.464Z,100291.66
